sensor_id;sensor_type;location;lat;lon;timestamp;P1;durP1;ratioP1;P2;durP2;ratioP2
22531;SDS011;11432;46.924;7.114;2022-10-01T00:00:49;3.08;;;1.80;;
22531;SDS011;11432;46.924;7.114;2022-10-01T00:03:16;3.28;;;2.00;;
22531;SDS011;11432;46.924;7.114;2022-10-01T00:05:42;3.17;;;2.20;;
22531;SDS011;11432;46.924;7.114;2022-10-01T00:08:08;4.32;;;2.13;;
22531;SDS011;11432;46.924;7.114;2022-10-01T00:10:34;2.80;;;2.17;;
22531;SDS011;11432;46.924;7.114;2022-10-01T00:13:00;3.50;;;2.30;;
22531;SDS011;11432;46.924;7.114;2022-10-01T00:15:26;3.30;;;2.13;;
22531;SDS011;11432;46.924;7.114;2022-10-01T00:17:52;3.15;;;1.98;;
22531;SDS011;11432;46.924;7.114;2022-10-01T00:20:18;3.17;;;2.10;;
22531;SDS011;11432;46.924;7.114;2022-10-01T00:22:43;2.80;;;1.90;;
22531;SDS011;11432;46.924;7.114;2022-10-01T00:25:10;3.00;;;2.08;;
22531;SDS011;11432;46.924;7.114;2022-10-01T00:27:35;3.42;;;2.10;;
22531;SDS011;11432;46.924;7.114;2022-10-01T00:30:05;2.97;;;1.90;;
22531;SDS011;11432;46.924;7.114;2022-10-01T00:32:31;2.72;;;1.85;;
22531;SDS011;11432;46.924;7.114;2022-10-01T00:34:58;3.30;;;2.17;;
22531;SDS011;11432;46.924;7.114;2022-10-01T00:37:24;3.15;;;2.03;;
22531;SDS011;11432;46.924;7.114;2022-10-01T00:39:50;3.55;;;2.22;;
22531;SDS011;11432;46.924;7.114;2022-10-01T00:42:17;2.63;;;1.73;;
22531;SDS011;11432;46.924;7.114;2022-10-01T00:44:44;4.00;;;2.30;;
22531;SDS011;11432;46.924;7.114;2022-10-01T00:49:48;5.10;;;2.10;;
22531;SDS011;11432;46.924;7.114;2022-10-01T00:52:17;2.63;;;1.83;;
22531;SDS011;11432;46.924;7.114;2022-10-01T00:54:49;2.67;;;1.92;;
22531;SDS011;11432;46.924;7.114;2022-10-01T00:57:20;2.25;;;1.65;;
22531;SDS011;11432;46.924;7.114;2022-10-01T00:59:49;5.10;;;2.20;;
22531;SDS011;11432;46.924;7.114;2022-10-01T01:02:18;3.53;;;1.88;;
22531;SDS011;11432;46.924;7.114;2022-10-01T01:04:44;2.50;;;1.83;;
22531;SDS011;11432;46.924;7.114;2022-10-01T01:07:10;2.92;;;2.10;;
22531;SDS011;11432;46.924;7.114;2022-10-01T01:09:39;3.58;;;2.20;;
22531;SDS011;11432;46.924;7.114;2022-10-01T01:17:59;3.65;;;2.03;;
22531;SDS011;11432;46.924;7.114;2022-10-01T01:28:46;3.90;;;2.28;;
22531;SDS011;11432;46.924;7.114;2022-10-01T01:31:20;2.90;;;1.90;;
22531;SDS011;11432;46.924;7.114;2022-10-01T01:33:50;3.30;;;2.10;;
22531;SDS011;11432;46.924;7.114;2022-10-01T01:36:20;2.72;;;1.80;;
22531;SDS011;11432;46.924;7.114;2022-10-01T01:38:52;2.92;;;2.00;;
22531;SDS011;11432;46.924;7.114;2022-10-01T01:41:23;2.83;;;1.80;;
22531;SDS011;11432;46.924;7.114;2022-10-01T01:43:53;2.95;;;1.73;;
22531;SDS011;11432;46.924;7.114;2022-10-01T01:46:21;3.08;;;1.70;;
22531;SDS011;11432;46.924;7.114;2022-10-01T01:48:48;3.17;;;1.63;;
22531;SDS011;11432;46.924;7.114;2022-10-01T01:51:19;2.63;;;1.67;;
22531;SDS011;11432;46.924;7.114;2022-10-01T01:54:06;2.78;;;1.63;;
22531;SDS011;11432;46.924;7.114;2022-10-01T01:56:32;2.17;;;1.60;;
22531;SDS011;11432;46.924;7.114;2022-10-01T01:58:58;2.80;;;1.50;;
22531;SDS011;11432;46.924;7.114;2022-10-01T02:01:31;1.95;;;1.40;;
22531;SDS011;11432;46.924;7.114;2022-10-01T02:03:59;3.03;;;1.60;;
22531;SDS011;11432;46.924;7.114;2022-10-01T02:06:30;1.70;;;1.40;;
22531;SDS011;11432;46.924;7.114;2022-10-01T02:09:03;5.07;;;1.27;;
22531;SDS011;11432;46.924;7.114;2022-10-01T02:11:41;1.63;;;1.38;;
22531;SDS011;11432;46.924;7.114;2022-10-01T02:17:00;2.03;;;1.40;;
22531;SDS011;11432;46.924;7.114;2022-10-01T02:26:54;1.88;;;1.30;;
22531;SDS011;11432;46.924;7.114;2022-10-01T02:29:23;2.10;;;1.52;;
22531;SDS011;11432;46.924;7.114;2022-10-01T02:31:48;2.85;;;1.30;;
22531;SDS011;11432;46.924;7.114;2022-10-01T02:34:19;2.70;;;1.35;;
22531;SDS011;11432;46.924;7.114;2022-10-01T02:36:48;1.60;;;1.20;;
22531;SDS011;11432;46.924;7.114;2022-10-01T02:39:16;2.00;;;1.35;;
22531;SDS011;11432;46.924;7.114;2022-10-01T02:41:43;1.67;;;1.23;;
22531;SDS011;11432;46.924;7.114;2022-10-01T02:44:15;1.77;;;1.23;;
22531;SDS011;11432;46.924;7.114;2022-10-01T02:49:44;1.88;;;1.38;;
22531;SDS011;11432;46.924;7.114;2022-10-01T02:52:16;1.75;;;1.20;;
22531;SDS011;11432;46.924;7.114;2022-10-01T02:54:59;3.40;;;2.03;;
22531;SDS011;11432;46.924;7.114;2022-10-01T02:57:31;2.78;;;1.60;;
22531;SDS011;11432;46.924;7.114;2022-10-01T03:00:01;3.50;;;1.83;;
22531;SDS011;11432;46.924;7.114;2022-10-01T03:02:30;2.63;;;1.58;;
22531;SDS011;11432;46.924;7.114;2022-10-01T03:04:57;2.58;;;1.80;;
22531;SDS011;11432;46.924;7.114;2022-10-01T03:07:24;2.63;;;1.35;;
22531;SDS011;11432;46.924;7.114;2022-10-01T03:09:51;2.40;;;1.60;;
22531;SDS011;11432;46.924;7.114;2022-10-01T03:12:16;2.15;;;1.40;;
22531;SDS011;11432;46.924;7.114;2022-10-01T03:14:43;2.03;;;1.42;;
22531;SDS011;11432;46.924;7.114;2022-10-01T03:17:10;2.90;;;1.80;;
22531;SDS011;11432;46.924;7.114;2022-10-01T03:19:36;2.47;;;1.77;;
22531;SDS011;11432;46.924;7.114;2022-10-01T03:22:02;4.95;;;3.25;;
22531;SDS011;11432;46.924;7.114;2022-10-01T03:24:28;4.03;;;2.95;;
22531;SDS011;11432;46.924;7.114;2022-10-01T03:26:56;2.88;;;2.13;;
22531;SDS011;11432;46.924;7.114;2022-10-01T03:29:23;2.40;;;1.80;;
22531;SDS011;11432;46.924;7.114;2022-10-01T03:31:49;2.50;;;1.85;;
22531;SDS011;11432;46.924;7.114;2022-10-01T03:34:15;2.03;;;1.75;;
22531;SDS011;11432;46.924;7.114;2022-10-01T03:36:41;2.83;;;1.60;;
22531;SDS011;11432;46.924;7.114;2022-10-01T03:39:06;2.60;;;1.90;;
22531;SDS011;11432;46.924;7.114;2022-10-01T03:41:32;3.30;;;1.98;;
22531;SDS011;11432;46.924;7.114;2022-10-01T03:43:58;3.58;;;2.00;;
22531;SDS011;11432;46.924;7.114;2022-10-01T03:46:23;3.17;;;1.98;;
22531;SDS011;11432;46.924;7.114;2022-10-01T03:48:50;2.60;;;1.80;;
22531;SDS011;11432;46.924;7.114;2022-10-01T03:51:16;2.97;;;2.10;;
22531;SDS011;11432;46.924;7.114;2022-10-01T03:53:45;2.75;;;1.88;;
22531;SDS011;11432;46.924;7.114;2022-10-01T03:56:12;2.92;;;2.00;;
22531;SDS011;11432;46.924;7.114;2022-10-01T03:58:38;3.05;;;1.92;;
22531;SDS011;11432;46.924;7.114;2022-10-01T04:01:04;3.38;;;2.03;;
22531;SDS011;11432;46.924;7.114;2022-10-01T04:03:29;2.42;;;2.08;;
22531;SDS011;11432;46.924;7.114;2022-10-01T04:05:55;3.30;;;1.85;;
22531;SDS011;11432;46.924;7.114;2022-10-01T04:08:21;3.05;;;2.30;;
22531;SDS011;11432;46.924;7.114;2022-10-01T04:10:47;3.03;;;2.10;;
22531;SDS011;11432;46.924;7.114;2022-10-01T04:13:13;3.15;;;2.22;;
22531;SDS011;11432;46.924;7.114;2022-10-01T04:15:39;2.60;;;2.03;;
22531;SDS011;11432;46.924;7.114;2022-10-01T04:18:05;3.38;;;1.92;;
22531;SDS011;11432;46.924;7.114;2022-10-01T04:20:32;2.80;;;2.25;;
22531;SDS011;11432;46.924;7.114;2022-10-01T04:22:59;3.05;;;2.30;;
22531;SDS011;11432;46.924;7.114;2022-10-01T04:25:25;4.65;;;2.30;;
22531;SDS011;11432;46.924;7.114;2022-10-01T04:27:58;3.45;;;2.15;;
22531;SDS011;11432;46.924;7.114;2022-10-01T04:30:32;3.90;;;2.53;;
22531;SDS011;11432;46.924;7.114;2022-10-01T04:33:00;3.53;;;2.20;;
22531;SDS011;11432;46.924;7.114;2022-10-01T04:35:26;3.13;;;2.10;;
22531;SDS011;11432;46.924;7.114;2022-10-01T04:37:56;3.80;;;1.90;;
22531;SDS011;11432;46.924;7.114;2022-10-01T04:40:26;2.53;;;1.70;;
22531;SDS011;11432;46.924;7.114;2022-10-01T04:42:51;2.78;;;1.85;;
22531;SDS011;11432;46.924;7.114;2022-10-01T04:45:17;2.78;;;1.67;;
22531;SDS011;11432;46.924;7.114;2022-10-01T04:47:47;2.20;;;1.42;;
22531;SDS011;11432;46.924;7.114;2022-10-01T04:50:14;2.40;;;1.70;;
22531;SDS011;11432;46.924;7.114;2022-10-01T04:52:40;3.28;;;1.65;;
22531;SDS011;11432;46.924;7.114;2022-10-01T04:55:06;2.72;;;1.42;;
22531;SDS011;11432;46.924;7.114;2022-10-01T04:57:32;1.85;;;1.30;;
22531;SDS011;11432;46.924;7.114;2022-10-01T04:59:59;2.20;;;1.50;;
22531;SDS011;11432;46.924;7.114;2022-10-01T05:02:25;1.77;;;1.30;;
22531;SDS011;11432;46.924;7.114;2022-10-01T05:04:53;3.33;;;1.40;;
22531;SDS011;11432;46.924;7.114;2022-10-01T05:07:20;1.65;;;1.10;;
22531;SDS011;11432;46.924;7.114;2022-10-01T05:09:46;1.45;;;0.98;;
22531;SDS011;11432;46.924;7.114;2022-10-01T05:12:12;1.40;;;1.08;;
22531;SDS011;11432;46.924;7.114;2022-10-01T05:14:38;2.45;;;1.20;;
22531;SDS011;11432;46.924;7.114;2022-10-01T05:17:04;1.40;;;0.80;;
22531;SDS011;11432;46.924;7.114;2022-10-01T05:19:31;1.88;;;1.27;;
22531;SDS011;11432;46.924;7.114;2022-10-01T05:21:57;1.73;;;0.90;;
22531;SDS011;11432;46.924;7.114;2022-10-01T05:24:23;1.48;;;0.80;;
22531;SDS011;11432;46.924;7.114;2022-10-01T05:26:49;1.35;;;0.95;;
22531;SDS011;11432;46.924;7.114;2022-10-01T05:29:15;1.60;;;1.10;;
22531;SDS011;11432;46.924;7.114;2022-10-01T05:31:42;1.63;;;1.15;;
22531;SDS011;11432;46.924;7.114;2022-10-01T05:34:08;1.13;;;1.00;;
22531;SDS011;11432;46.924;7.114;2022-10-01T05:36:34;2.40;;;1.33;;
22531;SDS011;11432;46.924;7.114;2022-10-01T05:39:00;1.63;;;1.23;;
22531;SDS011;11432;46.924;7.114;2022-10-01T05:41:26;2.83;;;1.02;;
22531;SDS011;11432;46.924;7.114;2022-10-01T05:43:51;1.85;;;1.27;;
22531;SDS011;11432;46.924;7.114;2022-10-01T05:46:17;2.05;;;1.00;;
22531;SDS011;11432;46.924;7.114;2022-10-01T05:48:43;2.03;;;0.90;;
22531;SDS011;11432;46.924;7.114;2022-10-01T05:51:09;1.38;;;1.02;;
22531;SDS011;11432;46.924;7.114;2022-10-01T05:53:35;1.42;;;1.00;;
22531;SDS011;11432;46.924;7.114;2022-10-01T05:56:02;1.13;;;0.90;;
22531;SDS011;11432;46.924;7.114;2022-10-01T05:58:28;1.92;;;0.88;;
22531;SDS011;11432;46.924;7.114;2022-10-01T06:00:55;1.30;;;0.90;;
22531;SDS011;11432;46.924;7.114;2022-10-01T06:03:21;2.17;;;0.98;;
22531;SDS011;11432;46.924;7.114;2022-10-01T06:05:47;0.90;;;0.70;;
22531;SDS011;11432;46.924;7.114;2022-10-01T06:08:12;1.75;;;1.05;;
22531;SDS011;11432;46.924;7.114;2022-10-01T06:10:38;1.20;;;0.73;;
22531;SDS011;11432;46.924;7.114;2022-10-01T06:13:04;0.75;;;0.70;;
22531;SDS011;11432;46.924;7.114;2022-10-01T06:15:31;2.20;;;0.90;;
22531;SDS011;11432;46.924;7.114;2022-10-01T06:18:02;1.08;;;0.80;;
22531;SDS011;11432;46.924;7.114;2022-10-01T06:20:28;1.52;;;0.90;;
22531;SDS011;11432;46.924;7.114;2022-10-01T06:22:55;1.33;;;0.88;;
22531;SDS011;11432;46.924;7.114;2022-10-01T06:25:22;1.83;;;0.98;;
22531;SDS011;11432;46.924;7.114;2022-10-01T06:27:52;1.17;;;0.73;;
22531;SDS011;11432;46.924;7.114;2022-10-01T06:30:20;1.17;;;0.80;;
22531;SDS011;11432;46.924;7.114;2022-10-01T06:32:46;1.10;;;0.70;;
22531;SDS011;11432;46.924;7.114;2022-10-01T06:35:12;1.38;;;0.90;;
22531;SDS011;11432;46.924;7.114;2022-10-01T06:37:38;0.80;;;0.80;;
22531;SDS011;11432;46.924;7.114;2022-10-01T06:40:04;3.20;;;1.08;;
22531;SDS011;11432;46.924;7.114;2022-10-01T06:42:31;1.42;;;0.95;;
22531;SDS011;11432;46.924;7.114;2022-10-01T06:44:56;1.42;;;0.95;;
22531;SDS011;11432;46.924;7.114;2022-10-01T06:47:22;2.10;;;1.08;;
22531;SDS011;11432;46.924;7.114;2022-10-01T06:49:48;2.22;;;1.05;;
22531;SDS011;11432;46.924;7.114;2022-10-01T06:52:15;2.13;;;1.40;;
22531;SDS011;11432;46.924;7.114;2022-10-01T06:54:59;1.10;;;0.90;;
22531;SDS011;11432;46.924;7.114;2022-10-01T06:57:26;1.98;;;0.95;;
22531;SDS011;11432;46.924;7.114;2022-10-01T06:59:52;1.77;;;1.10;;
22531;SDS011;11432;46.924;7.114;2022-10-01T07:02:22;1.52;;;0.90;;
22531;SDS011;11432;46.924;7.114;2022-10-01T07:04:51;1.23;;;1.00;;
22531;SDS011;11432;46.924;7.114;2022-10-01T07:07:17;1.65;;;1.05;;
22531;SDS011;11432;46.924;7.114;2022-10-01T07:09:43;1.48;;;0.82;;
22531;SDS011;11432;46.924;7.114;2022-10-01T07:12:08;1.30;;;0.90;;
22531;SDS011;11432;46.924;7.114;2022-10-01T07:14:34;1.73;;;1.10;;
22531;SDS011;11432;46.924;7.114;2022-10-01T07:16:59;1.08;;;0.93;;
22531;SDS011;11432;46.924;7.114;2022-10-01T07:19:25;1.30;;;1.00;;
22531;SDS011;11432;46.924;7.114;2022-10-01T07:21:51;1.75;;;1.00;;
22531;SDS011;11432;46.924;7.114;2022-10-01T07:24:16;2.55;;;0.90;;
22531;SDS011;11432;46.924;7.114;2022-10-01T07:26:42;1.33;;;0.95;;
22531;SDS011;11432;46.924;7.114;2022-10-01T07:29:08;2.03;;;1.00;;
22531;SDS011;11432;46.924;7.114;2022-10-01T07:31:34;1.70;;;1.10;;
22531;SDS011;11432;46.924;7.114;2022-10-01T07:33:59;1.63;;;0.93;;
22531;SDS011;11432;46.924;7.114;2022-10-01T07:36:25;1.13;;;0.88;;
22531;SDS011;11432;46.924;7.114;2022-10-01T07:38:51;1.60;;;1.00;;
22531;SDS011;11432;46.924;7.114;2022-10-01T07:41:16;1.70;;;1.10;;
22531;SDS011;11432;46.924;7.114;2022-10-01T07:43:42;2.42;;;1.00;;
22531;SDS011;11432;46.924;7.114;2022-10-01T07:46:10;2.17;;;1.17;;
22531;SDS011;11432;46.924;7.114;2022-10-01T07:48:36;2.38;;;1.13;;
22531;SDS011;11432;46.924;7.114;2022-10-01T07:51:01;2.55;;;0.93;;
22531;SDS011;11432;46.924;7.114;2022-10-01T07:53:27;1.63;;;0.98;;
22531;SDS011;11432;46.924;7.114;2022-10-01T07:55:53;1.48;;;0.98;;
22531;SDS011;11432;46.924;7.114;2022-10-01T07:58:18;1.40;;;0.75;;
22531;SDS011;11432;46.924;7.114;2022-10-01T08:00:47;1.42;;;1.10;;
22531;SDS011;11432;46.924;7.114;2022-10-01T08:03:13;2.20;;;1.30;;
22531;SDS011;11432;46.924;7.114;2022-10-01T08:05:39;1.70;;;1.00;;
22531;SDS011;11432;46.924;7.114;2022-10-01T08:08:06;2.63;;;1.30;;
22531;SDS011;11432;46.924;7.114;2022-10-01T08:10:34;1.88;;;1.00;;
22531;SDS011;11432;46.924;7.114;2022-10-01T08:13:05;1.73;;;1.10;;
22531;SDS011;11432;46.924;7.114;2022-10-01T08:15:38;1.80;;;1.05;;
22531;SDS011;11432;46.924;7.114;2022-10-01T08:18:08;1.30;;;0.95;;
22531;SDS011;11432;46.924;7.114;2022-10-01T08:20:35;1.98;;;0.95;;
22531;SDS011;11432;46.924;7.114;2022-10-01T08:23:04;1.15;;;0.90;;
22531;SDS011;11432;46.924;7.114;2022-10-01T08:25:31;0.85;;;0.65;;
22531;SDS011;11432;46.924;7.114;2022-10-01T08:27:57;3.08;;;1.05;;
22531;SDS011;11432;46.924;7.114;2022-10-01T08:30:26;0.88;;;0.40;;
22531;SDS011;11432;46.924;7.114;2022-10-01T08:32:53;1.73;;;1.10;;
22531;SDS011;11432;46.924;7.114;2022-10-01T08:35:23;1.55;;;0.98;;
22531;SDS011;11432;46.924;7.114;2022-10-01T08:37:49;1.58;;;0.93;;
22531;SDS011;11432;46.924;7.114;2022-10-01T08:40:14;2.95;;;0.70;;
22531;SDS011;11432;46.924;7.114;2022-10-01T08:42:56;1.53;;;1.00;;
22531;SDS011;11432;46.924;7.114;2022-10-01T08:48:06;0.82;;;0.68;;
22531;SDS011;11432;46.924;7.114;2022-10-01T08:50:56;1.17;;;0.80;;
22531;SDS011;11432;46.924;7.114;2022-10-01T08:53:31;0.88;;;0.35;;
22531;SDS011;11432;46.924;7.114;2022-10-01T08:56:04;1.17;;;0.85;;
22531;SDS011;11432;46.924;7.114;2022-10-01T08:58:40;0.93;;;0.63;;
22531;SDS011;11432;46.924;7.114;2022-10-01T09:01:10;2.28;;;0.90;;
22531;SDS011;11432;46.924;7.114;2022-10-01T09:03:36;1.65;;;0.95;;
22531;SDS011;11432;46.924;7.114;2022-10-01T09:06:13;0.98;;;0.88;;
22531;SDS011;11432;46.924;7.114;2022-10-01T09:19:35;1.40;;;0.90;;
22531;SDS011;11432;46.924;7.114;2022-10-01T09:25:18;0.85;;;0.57;;
22531;SDS011;11432;46.924;7.114;2022-10-01T09:27:49;1.38;;;0.90;;
22531;SDS011;11432;46.924;7.114;2022-10-01T09:30:26;0.98;;;0.68;;
22531;SDS011;11432;46.924;7.114;2022-10-01T09:32:55;1.17;;;0.50;;
22531;SDS011;11432;46.924;7.114;2022-10-01T09:35:46;2.33;;;0.85;;
22531;SDS011;11432;46.924;7.114;2022-10-01T09:38:16;0.98;;;0.80;;
22531;SDS011;11432;46.924;7.114;2022-10-01T09:40:52;1.42;;;0.70;;
22531;SDS011;11432;46.924;7.114;2022-10-01T09:43:20;1.17;;;0.80;;
22531;SDS011;11432;46.924;7.114;2022-10-01T09:45:56;0.90;;;0.80;;
22531;SDS011;11432;46.924;7.114;2022-10-01T09:50:58;1.45;;;0.77;;
22531;SDS011;11432;46.924;7.114;2022-10-01T09:54:01;1.10;;;0.88;;
22531;SDS011;11432;46.924;7.114;2022-10-01T09:56:28;1.05;;;0.80;;
22531;SDS011;11432;46.924;7.114;2022-10-01T09:59:00;0.65;;;0.52;;
22531;SDS011;11432;46.924;7.114;2022-10-01T10:01:34;0.98;;;0.75;;
22531;SDS011;11432;46.924;7.114;2022-10-01T10:04:03;1.13;;;0.90;;
22531;SDS011;11432;46.924;7.114;2022-10-01T10:06:28;6.05;;;1.00;;
22531;SDS011;11432;46.924;7.114;2022-10-01T10:08:56;1.40;;;1.08;;
22531;SDS011;11432;46.924;7.114;2022-10-01T10:11:25;1.70;;;1.07;;
22531;SDS011;11432;46.924;7.114;2022-10-01T10:13:59;1.13;;;0.60;;
22531;SDS011;11432;46.924;7.114;2022-10-01T10:16:32;1.42;;;0.95;;
22531;SDS011;11432;46.924;7.114;2022-10-01T10:19:00;1.77;;;0.90;;
22531;SDS011;11432;46.924;7.114;2022-10-01T10:21:49;1.38;;;0.80;;
22531;SDS011;11432;46.924;7.114;2022-10-01T10:24:20;2.08;;;0.95;;
22531;SDS011;11432;46.924;7.114;2022-10-01T10:26:55;1.05;;;0.70;;
22531;SDS011;11432;46.924;7.114;2022-10-01T10:29:32;1.00;;;0.60;;
22531;SDS011;11432;46.924;7.114;2022-10-01T10:32:03;1.65;;;1.02;;
22531;SDS011;11432;46.924;7.114;2022-10-01T10:34:51;1.70;;;1.35;;
22531;SDS011;11432;46.924;7.114;2022-10-01T10:37:27;0.45;;;0.40;;
22531;SDS011;11432;46.924;7.114;2022-10-01T10:39:56;0.73;;;0.60;;
22531;SDS011;11432;46.924;7.114;2022-10-01T10:42:22;2.67;;;0.70;;
22531;SDS011;11432;46.924;7.114;2022-10-01T10:44:50;1.77;;;0.85;;
22531;SDS011;11432;46.924;7.114;2022-10-01T10:47:19;0.95;;;0.70;;
22531;SDS011;11432;46.924;7.114;2022-10-01T10:52:26;1.35;;;0.65;;
22531;SDS011;11432;46.924;7.114;2022-10-01T10:54:55;1.20;;;0.70;;
22531;SDS011;11432;46.924;7.114;2022-10-01T10:57:27;0.77;;;0.60;;
22531;SDS011;11432;46.924;7.114;2022-10-01T10:59:58;1.60;;;0.73;;
22531;SDS011;11432;46.924;7.114;2022-10-01T11:02:28;1.08;;;0.63;;
22531;SDS011;11432;46.924;7.114;2022-10-01T11:04:56;0.52;;;0.32;;
22531;SDS011;11432;46.924;7.114;2022-10-01T11:07:25;1.10;;;0.60;;
22531;SDS011;11432;46.924;7.114;2022-10-01T11:29:25;0.43;;;0.30;;
22531;SDS011;11432;46.924;7.114;2022-10-01T11:38:29;0.43;;;0.35;;
22531;SDS011;11432;46.924;7.114;2022-10-01T11:41:24;0.77;;;0.30;;
22531;SDS011;11432;46.924;7.114;2022-10-01T11:43:56;2.55;;;0.47;;
22531;SDS011;11432;46.924;7.114;2022-10-01T11:51:40;0.55;;;0.50;;
22531;SDS011;11432;46.924;7.114;2022-10-01T11:54:11;0.60;;;0.50;;
22531;SDS011;11432;46.924;7.114;2022-10-01T11:56:40;0.45;;;0.40;;
22531;SDS011;11432;46.924;7.114;2022-10-01T11:59:32;1.23;;;0.40;;
22531;SDS011;11432;46.924;7.114;2022-10-01T12:02:20;1.35;;;0.50;;
22531;SDS011;11432;46.924;7.114;2022-10-01T12:04:58;0.40;;;0.40;;
22531;SDS011;11432;46.924;7.114;2022-10-01T12:13:02;0.57;;;0.50;;
22531;SDS011;11432;46.924;7.114;2022-10-01T12:15:39;1.02;;;0.60;;
22531;SDS011;11432;46.924;7.114;2022-10-01T12:18:18;0.95;;;0.45;;
22531;SDS011;11432;46.924;7.114;2022-10-01T12:20:46;0.52;;;0.47;;
22531;SDS011;11432;46.924;7.114;2022-10-01T12:23:21;1.15;;;0.47;;
22531;SDS011;11432;46.924;7.114;2022-10-01T12:28:28;1.52;;;0.63;;
22531;SDS011;11432;46.924;7.114;2022-10-01T12:34:10;1.23;;;0.70;;
22531;SDS011;11432;46.924;7.114;2022-10-01T12:36:41;1.42;;;1.08;;
22531;SDS011;11432;46.924;7.114;2022-10-01T12:44:55;0.93;;;0.60;;
22531;SDS011;11432;46.924;7.114;2022-10-01T12:47:37;1.13;;;0.60;;
22531;SDS011;11432;46.924;7.114;2022-10-01T12:50:20;1.20;;;0.70;;
22531;SDS011;11432;46.924;7.114;2022-10-01T12:53:11;1.17;;;0.70;;
22531;SDS011;11432;46.924;7.114;2022-10-01T13:01:12;2.08;;;0.65;;
22531;SDS011;11432;46.924;7.114;2022-10-01T13:06:30;1.05;;;0.50;;
22531;SDS011;11432;46.924;7.114;2022-10-01T13:14:30;1.70;;;0.77;;
22531;SDS011;11432;46.924;7.114;2022-10-01T13:17:00;1.58;;;0.73;;
22531;SDS011;11432;46.924;7.114;2022-10-01T13:20:04;0.90;;;0.50;;
22531;SDS011;11432;46.924;7.114;2022-10-01T13:22:56;1.00;;;0.75;;
22531;SDS011;11432;46.924;7.114;2022-10-01T13:25:29;1.48;;;0.60;;
22531;SDS011;11432;46.924;7.114;2022-10-01T13:28:15;1.92;;;0.85;;
22531;SDS011;11432;46.924;7.114;2022-10-01T13:33:25;0.65;;;0.50;;
22531;SDS011;11432;46.924;7.114;2022-10-01T13:36:06;0.40;;;0.40;;
22531;SDS011;11432;46.924;7.114;2022-10-01T13:41:02;0.83;;;0.70;;
22531;SDS011;11432;46.924;7.114;2022-10-01T13:43:30;1.30;;;0.70;;
22531;SDS011;11432;46.924;7.114;2022-10-01T13:46:04;0.68;;;0.50;;
22531;SDS011;11432;46.924;7.114;2022-10-01T13:48:32;0.80;;;0.60;;
22531;SDS011;11432;46.924;7.114;2022-10-01T13:51:02;0.75;;;0.55;;
22531;SDS011;11432;46.924;7.114;2022-10-01T13:53:35;0.82;;;0.57;;
22531;SDS011;11432;46.924;7.114;2022-10-01T13:56:01;0.98;;;0.70;;
22531;SDS011;11432;46.924;7.114;2022-10-01T14:00:54;1.15;;;0.68;;
22531;SDS011;11432;46.924;7.114;2022-10-01T14:05:50;1.90;;;0.70;;
22531;SDS011;11432;46.924;7.114;2022-10-01T14:10:50;1.10;;;0.77;;
22531;SDS011;11432;46.924;7.114;2022-10-01T14:13:47;2.33;;;0.70;;
22531;SDS011;11432;46.924;7.114;2022-10-01T14:16:38;1.08;;;0.70;;
22531;SDS011;11432;46.924;7.114;2022-10-01T14:19:07;0.80;;;0.50;;
22531;SDS011;11432;46.924;7.114;2022-10-01T14:37:27;0.47;;;0.38;;
22531;SDS011;11432;46.924;7.114;2022-10-01T14:40:01;0.63;;;0.43;;
22531;SDS011;11432;46.924;7.114;2022-10-01T14:42:41;0.38;;;0.32;;
22531;SDS011;11432;46.924;7.114;2022-10-01T14:45:14;1.30;;;0.47;;
22531;SDS011;11432;46.924;7.114;2022-10-01T14:47:41;0.70;;;0.40;;
22531;SDS011;11432;46.924;7.114;2022-10-01T14:50:08;0.40;;;0.30;;
22531;SDS011;11432;46.924;7.114;2022-10-01T14:52:35;0.45;;;0.30;;
22531;SDS011;11432;46.924;7.114;2022-10-01T14:55:05;0.70;;;0.30;;
22531;SDS011;11432;46.924;7.114;2022-10-01T14:57:40;0.85;;;0.30;;
22531;SDS011;11432;46.924;7.114;2022-10-01T15:00:18;0.30;;;0.30;;
22531;SDS011;11432;46.924;7.114;2022-10-01T15:02:47;1.17;;;0.20;;
22531;SDS011;11432;46.924;7.114;2022-10-01T15:07:49;0.55;;;0.40;;
22531;SDS011;11432;46.924;7.114;2022-10-01T15:10:16;0.22;;;0.20;;
22531;SDS011;11432;46.924;7.114;2022-10-01T15:12:43;0.43;;;0.30;;
22531;SDS011;11432;46.924;7.114;2022-10-01T15:15:18;0.20;;;0.20;;
22531;SDS011;11432;46.924;7.114;2022-10-01T15:17:44;0.35;;;0.20;;
22531;SDS011;11432;46.924;7.114;2022-10-01T15:20:10;0.45;;;0.22;;
22531;SDS011;11432;46.924;7.114;2022-10-01T15:22:37;0.30;;;0.30;;
22531;SDS011;11432;46.924;7.114;2022-10-01T15:25:03;0.20;;;0.20;;
22531;SDS011;11432;46.924;7.114;2022-10-01T15:27:30;0.25;;;0.20;;
22531;SDS011;11432;46.924;7.114;2022-10-01T15:29:56;0.50;;;0.20;;
22531;SDS011;11432;46.924;7.114;2022-10-01T15:32:24;0.20;;;0.20;;
22531;SDS011;11432;46.924;7.114;2022-10-01T15:34:52;0.30;;;0.22;;
22531;SDS011;11432;46.924;7.114;2022-10-01T15:37:30;0.50;;;0.28;;
22531;SDS011;11432;46.924;7.114;2022-10-01T15:39:58;0.90;;;0.50;;
22531;SDS011;11432;46.924;7.114;2022-10-01T15:42:29;0.77;;;0.38;;
22531;SDS011;11432;46.924;7.114;2022-10-01T15:47:38;0.75;;;0.40;;
22531;SDS011;11432;46.924;7.114;2022-10-01T15:50:17;0.77;;;0.30;;
22531;SDS011;11432;46.924;7.114;2022-10-01T15:52:49;1.35;;;0.20;;
22531;SDS011;11432;46.924;7.114;2022-10-01T15:55:18;0.10;;;0.10;;
22531;SDS011;11432;46.924;7.114;2022-10-01T15:57:45;0.40;;;0.30;;
22531;SDS011;11432;46.924;7.114;2022-10-01T16:00:21;0.38;;;0.20;;
22531;SDS011;11432;46.924;7.114;2022-10-01T16:02:51;0.20;;;0.20;;
22531;SDS011;11432;46.924;7.114;2022-10-01T16:05:20;1.08;;;0.30;;
22531;SDS011;11432;46.924;7.114;2022-10-01T16:07:50;0.20;;;0.20;;
22531;SDS011;11432;46.924;7.114;2022-10-01T16:10:36;0.30;;;0.13;;
22531;SDS011;11432;46.924;7.114;2022-10-01T16:16:07;0.40;;;0.40;;
22531;SDS011;11432;46.924;7.114;2022-10-01T16:18:51;0.30;;;0.28;;
22531;SDS011;11432;46.924;7.114;2022-10-01T16:21:20;0.60;;;0.30;;
22531;SDS011;11432;46.924;7.114;2022-10-01T16:23:48;0.70;;;0.43;;
22531;SDS011;11432;46.924;7.114;2022-10-01T16:28:53;1.02;;;0.22;;
22531;SDS011;11432;46.924;7.114;2022-10-01T16:31:24;0.45;;;0.20;;
22531;SDS011;11432;46.924;7.114;2022-10-01T16:33:50;0.60;;;0.20;;
22531;SDS011;11432;46.924;7.114;2022-10-01T16:36:16;0.47;;;0.30;;
22531;SDS011;11432;46.924;7.114;2022-10-01T16:38:44;1.17;;;0.30;;
22531;SDS011;11432;46.924;7.114;2022-10-01T16:41:13;0.57;;;0.40;;
22531;SDS011;11432;46.924;7.114;2022-10-01T16:43:51;0.57;;;0.30;;
22531;SDS011;11432;46.924;7.114;2022-10-01T16:46:18;0.20;;;0.20;;
22531;SDS011;11432;46.924;7.114;2022-10-01T16:48:45;0.32;;;0.30;;
22531;SDS011;11432;46.924;7.114;2022-10-01T16:51:13;0.20;;;0.17;;
22531;SDS011;11432;46.924;7.114;2022-10-01T16:53:39;0.35;;;0.30;;
22531;SDS011;11432;46.924;7.114;2022-10-01T16:56:07;0.10;;;0.10;;
22531;SDS011;11432;46.924;7.114;2022-10-01T16:58:33;1.75;;;0.85;;
22531;SDS011;11432;46.924;7.114;2022-10-01T17:00:59;1.95;;;0.20;;
22531;SDS011;11432;46.924;7.114;2022-10-01T17:03:30;0.40;;;0.20;;
22531;SDS011;11432;46.924;7.114;2022-10-01T17:05:56;0.30;;;0.10;;
22531;SDS011;11432;46.924;7.114;2022-10-01T17:08:21;0.55;;;0.20;;
22531;SDS011;11432;46.924;7.114;2022-10-01T17:10:49;0.63;;;0.30;;
22531;SDS011;11432;46.924;7.114;2022-10-01T17:13:20;0.52;;;0.35;;
22531;SDS011;11432;46.924;7.114;2022-10-01T17:15:46;0.20;;;0.20;;
22531;SDS011;11432;46.924;7.114;2022-10-01T17:18:12;0.20;;;0.20;;
22531;SDS011;11432;46.924;7.114;2022-10-01T17:20:38;0.20;;;0.20;;
22531;SDS011;11432;46.924;7.114;2022-10-01T17:23:03;0.15;;;0.10;;
22531;SDS011;11432;46.924;7.114;2022-10-01T17:25:31;0.30;;;0.20;;
22531;SDS011;11432;46.924;7.114;2022-10-01T17:28:00;0.57;;;0.20;;
22531;SDS011;11432;46.924;7.114;2022-10-01T17:30:27;1.98;;;0.60;;
22531;SDS011;11432;46.924;7.114;2022-10-01T17:32:54;0.47;;;0.30;;
22531;SDS011;11432;46.924;7.114;2022-10-01T17:35:21;0.57;;;0.22;;